createdAt,value
2023-03-06T00:01:19.348Z,3.60
2023-03-06T00:03:49.875Z,3.90
2023-03-06T00:06:20.648Z,2.90
2023-03-06T00:08:51.032Z,3.20
2023-03-06T00:11:22.044Z,2.90
2023-03-06T00:13:53.326Z,2.80
2023-03-06T00:16:25.036Z,3.30
2023-03-06T00:18:55.575Z,3.10
2023-03-06T00:21:26.125Z,2.70
2023-03-06T00:23:56.537Z,2.90
2023-03-06T00:26:27.081Z,2.80
2023-03-06T00:28:57.508Z,2.50
2023-03-06T00:31:28.104Z,2.90
2023-03-06T00:33:58.526Z,2.40
2023-03-06T00:36:29.040Z,2.80
2023-03-06T00:38:59.471Z,3.50
2023-03-06T00:41:30.000Z,2.90
2023-03-06T00:44:01.551Z,3.10
2023-03-06T00:46:32.111Z,3.10
2023-03-06T00:49:02.663Z,3.20
2023-03-06T00:51:33.891Z,2.90
2023-03-06T00:54:04.463Z,3.90
2023-03-06T00:56:34.931Z,4.10
2023-03-06T00:59:05.501Z,3.60
2023-03-06T01:01:36.133Z,3.60
2023-03-06T01:04:06.810Z,3.70
2023-03-06T01:06:37.475Z,3.70
2023-03-06T01:09:08.052Z,3.20
2023-03-06T01:11:38.686Z,3.50
2023-03-06T01:14:09.398Z,3.30
2023-03-06T01:16:40.560Z,3.70
2023-03-06T01:19:11.070Z,3.40
2023-03-06T01:21:42.738Z,3.40
2023-03-06T01:24:13.234Z,3.20
2023-03-06T01:26:43.704Z,3.70
2023-03-06T01:29:14.179Z,3.50
2023-03-06T01:31:44.675Z,3.80
2023-03-06T01:34:15.101Z,3.70
2023-03-06T01:36:45.742Z,3.50
2023-03-06T01:39:16.304Z,3.90
2023-03-06T01:41:47.001Z,3.50
2023-03-06T01:44:17.436Z,4.10
2023-03-06T01:46:48.356Z,4.20
2023-03-06T01:49:22.207Z,3.90
2023-03-06T01:51:56.862Z,4.10
2023-03-06T01:54:30.545Z,5.00
2023-03-06T01:57:05.196Z,5.40
2023-03-06T01:59:38.670Z,6.10
2023-03-06T02:02:12.183Z,5.10
2023-03-06T02:04:44.184Z,6.00
2023-03-06T02:07:15.393Z,5.20
2023-03-06T02:09:45.832Z,5.40
2023-03-06T02:12:20.131Z,5.30
2023-03-06T02:14:51.202Z,6.00
2023-03-06T02:17:23.353Z,5.80
2023-03-06T02:19:59.992Z,5.20
2023-03-06T02:22:37.230Z,5.20
2023-03-06T02:25:16.369Z,5.10
2023-03-06T02:27:48.413Z,4.80
2023-03-06T02:30:20.171Z,5.10
2023-03-06T02:32:50.648Z,4.90
2023-03-06T02:35:25.129Z,4.80
2023-03-06T02:37:57.133Z,4.70
2023-03-06T02:40:27.963Z,4.90
2023-03-06T02:42:59.688Z,5.00
2023-03-06T02:45:35.747Z,4.80
2023-03-06T02:48:07.105Z,4.60
2023-03-06T02:50:37.551Z,4.80
2023-03-06T02:53:08.969Z,4.80
2023-03-06T02:55:40.064Z,5.30
2023-03-06T02:58:11.032Z,6.10
2023-03-06T03:00:42.507Z,5.60
2023-03-06T03:03:13.338Z,5.10
2023-03-06T03:05:43.822Z,5.50
2023-03-06T03:08:18.492Z,4.90
2023-03-06T03:10:49.638Z,4.60
2023-03-06T03:13:20.743Z,4.80
2023-03-06T03:16:01.708Z,4.80
2023-03-06T03:18:32.888Z,4.80
2023-03-06T03:21:03.984Z,5.30
2023-03-06T03:23:34.445Z,4.80
2023-03-06T03:26:11.580Z,4.90
2023-03-06T03:28:44.074Z,5.30
2023-03-06T03:31:15.820Z,5.50
2023-03-06T03:33:46.316Z,5.10
2023-03-06T03:36:17.008Z,4.80
2023-03-06T03:41:18.597Z,4.90
2023-03-06T03:43:49.644Z,5.20
2023-03-06T03:46:21.536Z,5.00
2023-03-06T03:48:52.657Z,6.00
2023-03-06T03:51:23.534Z,5.50
2023-03-06T03:53:58.139Z,5.80
2023-03-06T03:56:29.826Z,6.40
2023-03-06T03:59:04.693Z,7.20
2023-03-06T04:01:40.279Z,7.30
2023-03-06T04:04:11.535Z,6.20
2023-03-06T04:06:42.322Z,5.80
2023-03-06T04:09:13.051Z,6.30
2023-03-06T04:11:43.497Z,6.20
2023-03-06T04:14:14.159Z,5.60
2023-03-06T04:16:44.637Z,6.30
2023-03-06T04:19:15.189Z,5.50
2023-03-06T04:21:45.994Z,5.90
2023-03-06T04:24:17.666Z,5.70
2023-03-06T04:26:48.191Z,5.70
2023-03-06T04:29:18.680Z,6.60
2023-03-06T04:31:49.559Z,6.10
2023-03-06T04:34:20.211Z,6.40
2023-03-06T04:36:50.771Z,7.20
2023-03-06T04:39:21.406Z,6.20
2023-03-06T04:41:52.378Z,6.20
2023-03-06T04:44:23.046Z,5.80
2023-03-06T04:46:53.805Z,5.90
2023-03-06T04:49:24.273Z,7.50
2023-03-06T04:51:54.968Z,6.60
2023-03-06T04:54:25.616Z,7.00
2023-03-06T04:56:56.031Z,7.10
2023-03-06T04:59:26.521Z,7.60
2023-03-06T05:01:57.122Z,6.00
2023-03-06T05:04:27.721Z,6.40
2023-03-06T05:06:58.248Z,5.30
2023-03-06T05:09:28.762Z,6.20
2023-03-06T05:16:12.809Z,5.60
2023-03-06T05:18:43.494Z,5.20
2023-03-06T05:21:14.368Z,6.20
2023-03-06T05:23:44.817Z,6.00
2023-03-06T05:26:16.878Z,5.50
2023-03-06T05:28:47.265Z,5.50
2023-03-06T05:31:17.785Z,5.60
2023-03-06T05:33:48.374Z,6.10
2023-03-06T05:36:18.841Z,6.00
2023-03-06T05:38:49.334Z,6.30
2023-03-06T05:41:19.892Z,7.60
2023-03-06T05:43:50.422Z,6.60
2023-03-06T05:46:21.005Z,6.00
2023-03-06T05:48:52.544Z,7.00
2023-03-06T05:51:23.012Z,4.80
2023-03-06T05:53:53.503Z,5.60
2023-03-06T05:56:24.061Z,5.50
2023-03-06T05:58:54.502Z,5.20
2023-03-06T06:01:26.029Z,4.80
2023-03-06T06:03:56.704Z,4.90
2023-03-06T06:06:27.234Z,5.20
2023-03-06T06:13:10.655Z,5.00
2023-03-06T06:15:41.744Z,5.50
2023-03-06T06:18:12.375Z,4.60
2023-03-06T06:20:42.839Z,5.00
2023-03-06T06:23:14.074Z,5.10
2023-03-06T06:25:44.601Z,5.00
2023-03-06T06:28:15.033Z,5.20
2023-03-06T06:30:45.660Z,5.10
2023-03-06T06:33:16.167Z,5.70
2023-03-06T06:35:46.693Z,6.50
2023-03-06T06:38:17.248Z,6.20
2023-03-06T06:41:18.035Z,5.10
2023-03-06T06:43:38.143Z,4.70
2023-03-06T06:46:38.827Z,4.90
2023-03-06T06:49:00.153Z,4.30
2023-03-06T06:51:33.681Z,4.90
2023-03-06T06:54:04.457Z,4.70
2023-03-06T06:56:35.877Z,5.20
2023-03-06T06:59:16.138Z,4.60
2023-03-06T07:01:47.865Z,4.40
2023-03-06T07:04:19.261Z,4.60
2023-03-06T07:06:49.690Z,5.30
2023-03-06T07:09:20.616Z,5.10
2023-03-06T07:11:51.437Z,4.60
2023-03-06T07:14:22.099Z,5.00
2023-03-06T07:16:52.600Z,4.70
2023-03-06T07:19:23.246Z,5.20
2023-03-06T07:21:53.783Z,5.30
2023-03-06T07:24:24.379Z,6.30
2023-03-06T07:26:54.849Z,6.90
2023-03-06T07:29:25.341Z,7.10
2023-03-06T07:31:56.047Z,7.30
2023-03-06T07:34:26.686Z,7.90
2023-03-06T07:36:57.236Z,9.00
2023-03-06T07:39:28.244Z,8.30
2023-03-06T07:41:59.226Z,8.50
2023-03-06T07:44:30.202Z,9.20
2023-03-06T07:47:00.926Z,7.60
2023-03-06T07:49:31.618Z,8.10
2023-03-06T07:52:03.147Z,8.50
2023-03-06T07:54:35.294Z,8.50
2023-03-06T07:57:06.077Z,7.70
2023-03-06T07:59:36.571Z,8.30
2023-03-06T08:02:07.280Z,8.00
2023-03-06T08:04:37.707Z,9.90
2023-03-06T08:07:08.362Z,8.90
2023-03-06T08:09:38.958Z,8.90
2023-03-06T08:12:10.665Z,8.60
2023-03-06T08:14:41.256Z,8.70
2023-03-06T08:17:11.786Z,9.30
2023-03-06T08:19:42.213Z,8.80
2023-03-06T08:22:14.082Z,8.70
2023-03-06T08:24:44.603Z,8.60
2023-03-06T08:27:15.097Z,8.60
2023-03-06T08:29:45.539Z,9.40
2023-03-06T08:32:16.091Z,9.10
2023-03-06T08:34:46.825Z,8.90
2023-03-06T08:37:17.315Z,9.10
2023-03-06T08:39:47.847Z,7.80
2023-03-06T08:42:18.415Z,8.90
2023-03-06T08:44:48.964Z,8.60
2023-03-06T08:47:19.517Z,9.00
2023-03-06T08:49:50.062Z,9.50
2023-03-06T08:52:20.983Z,9.00
2023-03-06T08:54:51.407Z,8.40
2023-03-06T08:57:22.103Z,7.80
2023-03-06T08:59:52.591Z,8.40
2023-03-06T09:02:23.193Z,8.80
2023-03-06T09:04:53.991Z,7.90
2023-03-06T09:07:24.467Z,8.50
2023-03-06T09:09:58.567Z,8.50
2023-03-06T09:12:30.823Z,8.20
2023-03-06T09:15:08.061Z,9.00
2023-03-06T09:17:38.555Z,7.80
2023-03-06T09:20:12.031Z,7.90
2023-03-06T09:22:43.070Z,9.20
2023-03-06T09:25:17.606Z,9.20
2023-03-06T09:27:55.484Z,8.20
2023-03-06T09:30:32.711Z,8.30
2023-03-06T09:33:03.319Z,8.30
2023-03-06T09:35:33.841Z,8.20
2023-03-06T09:38:04.304Z,8.00
2023-03-06T09:40:49.353Z,8.70
2023-03-06T09:43:27.143Z,8.00
2023-03-06T09:45:58.182Z,6.90
2023-03-06T09:48:40.647Z,8.00
2023-03-06T09:51:16.248Z,7.50
2023-03-06T09:54:02.463Z,8.30
2023-03-06T09:56:36.872Z,7.30
2023-03-06T09:59:14.296Z,7.70
2023-03-06T10:01:50.921Z,8.00
2023-03-06T10:04:35.647Z,8.20
2023-03-06T10:07:14.205Z,7.90
2023-03-06T10:09:51.899Z,6.60
2023-03-06T10:12:28.816Z,8.00
2023-03-06T10:15:04.030Z,7.70
2023-03-06T10:17:38.561Z,7.80
2023-03-06T10:20:25.176Z,8.20
2023-03-06T10:23:08.085Z,7.40
2023-03-06T10:25:48.858Z,8.20
2023-03-06T10:28:25.520Z,7.70
2023-03-06T10:31:04.188Z,7.90
2023-03-06T10:33:48.177Z,7.40
2023-03-06T10:36:20.878Z,8.10
2023-03-06T10:38:51.718Z,7.80
2023-03-06T10:41:28.533Z,8.50
2023-03-06T10:44:20.947Z,8.30
2023-03-06T10:46:53.594Z,8.60
2023-03-06T10:49:36.151Z,8.80
2023-03-06T10:52:22.832Z,8.30
2023-03-06T10:54:53.311Z,7.70
2023-03-06T10:57:29.054Z,7.70
2023-03-06T11:00:01.114Z,8.60
2023-03-06T11:02:36.328Z,8.30
2023-03-06T11:05:19.928Z,8.40
2023-03-06T11:07:59.281Z,7.60
2023-03-06T11:10:31.037Z,9.10
2023-03-06T11:13:06.281Z,8.10
2023-03-06T11:15:37.025Z,8.10
2023-03-06T11:18:31.238Z,8.00
2023-03-06T11:21:02.564Z,7.70
2023-03-06T11:23:39.263Z,8.10
2023-03-06T11:26:25.976Z,7.30
2023-03-06T11:29:07.970Z,7.60
2023-03-06T11:31:43.789Z,7.50
2023-03-06T11:34:24.371Z,7.20
2023-03-06T11:36:59.636Z,7.80
2023-03-06T11:39:37.054Z,7.40
2023-03-06T11:42:16.917Z,7.30
2023-03-06T11:45:02.886Z,7.20
2023-03-06T11:47:37.871Z,7.20
2023-03-06T11:50:19.104Z,6.70
2023-03-06T11:52:52.535Z,7.10
2023-03-06T11:55:34.852Z,7.10
2023-03-06T11:58:23.197Z,7.50
2023-03-06T12:01:01.631Z,6.60
2023-03-06T12:03:57.822Z,7.40
2023-03-06T12:06:39.222Z,7.20
2023-03-06T12:09:25.215Z,5.80
2023-03-06T12:12:06.582Z,7.80
2023-03-06T12:14:53.230Z,7.20
2023-03-06T12:17:32.943Z,6.90
2023-03-06T12:20:22.427Z,6.60
2023-03-06T12:23:14.167Z,5.80
2023-03-06T12:25:49.454Z,6.70
2023-03-06T12:28:32.692Z,7.60
2023-03-06T12:31:23.784Z,7.60
2023-03-06T12:34:04.639Z,6.40
2023-03-06T12:36:48.341Z,7.10
2023-03-06T12:39:28.492Z,6.00
2023-03-06T12:42:22.634Z,6.20
2023-03-06T12:45:23.016Z,7.10
2023-03-06T12:47:57.398Z,6.20
2023-03-06T12:50:30.235Z,7.40
2023-03-06T12:53:04.011Z,6.80
2023-03-06T12:55:41.820Z,7.20
2023-03-06T12:58:51.077Z,7.50
2023-03-06T13:01:51.848Z,7.00
2023-03-06T13:04:36.391Z,7.50
2023-03-06T13:07:19.903Z,7.50
2023-03-06T13:10:06.867Z,7.50
2023-03-06T13:12:51.266Z,6.90
2023-03-06T13:15:39.973Z,7.10
2023-03-06T13:18:57.263Z,7.20
2023-03-06T13:22:03.929Z,6.60
2023-03-06T13:24:37.198Z,6.10
2023-03-06T13:27:11.019Z,6.60
2023-03-06T13:30:29.709Z,6.50
2023-03-06T13:33:00.250Z,5.70
2023-03-06T13:35:52.884Z,7.20
2023-03-06T13:39:08.643Z,6.30
2023-03-06T13:41:56.964Z,6.20
2023-03-06T13:44:53.332Z,7.50
2023-03-06T13:47:59.136Z,6.90
2023-03-06T13:50:38.410Z,7.50
2023-03-06T13:53:42.166Z,7.90
2023-03-06T13:59:15.948Z,8.00
2023-03-06T14:01:57.643Z,6.90
2023-03-06T14:04:45.193Z,8.40
2023-03-06T14:07:24.933Z,8.60
2023-03-06T14:10:10.738Z,8.80
2023-03-06T14:12:44.486Z,9.00
2023-03-06T14:15:22.143Z,7.90
2023-03-06T14:17:58.707Z,8.20
2023-03-06T14:20:36.625Z,8.90
2023-03-06T14:23:28.214Z,7.50
2023-03-06T14:26:08.491Z,7.80
2023-03-06T14:28:39.117Z,7.70
2023-03-06T14:31:14.846Z,7.90
2023-03-06T14:33:51.329Z,8.00
2023-03-06T14:36:24.361Z,8.30
2023-03-06T14:38:58.253Z,8.20
2023-03-06T14:41:31.998Z,7.80
2023-03-06T14:44:19.381Z,7.80
2023-03-06T14:46:51.358Z,7.50
2023-03-06T14:49:24.892Z,7.90
2023-03-06T14:51:57.641Z,7.80
2023-03-06T14:54:32.741Z,8.50
2023-03-06T14:57:06.794Z,8.20
2023-03-06T14:59:44.551Z,9.00
2023-03-06T15:02:21.128Z,8.10
2023-03-06T15:04:56.271Z,7.90
2023-03-06T15:07:31.494Z,8.40
2023-03-06T15:10:02.577Z,8.60
2023-03-06T15:12:39.636Z,8.70
2023-03-06T15:15:29.026Z,9.10
2023-03-06T15:17:59.626Z,8.60
2023-03-06T15:20:51.870Z,8.50
2023-03-06T15:23:26.799Z,9.80
2023-03-06T15:26:01.852Z,8.40
2023-03-06T15:28:38.661Z,8.40
2023-03-06T15:35:37.334Z,8.50
2023-03-06T15:38:32.999Z,7.50
2023-03-06T15:41:05.528Z,7.60
2023-03-06T15:43:39.377Z,8.80
2023-03-06T15:50:30.926Z,8.70
2023-03-06T15:53:01.352Z,9.10
2023-03-06T15:55:32.866Z,8.90
2023-03-06T15:58:04.712Z,8.90
2023-03-06T16:00:38.594Z,9.60
2023-03-06T16:03:11.411Z,9.40
2023-03-06T16:05:42.055Z,11.00
2023-03-06T16:08:15.020Z,8.70
2023-03-06T16:10:46.832Z,9.40
2023-03-06T16:13:20.504Z,9.20
2023-03-06T16:20:17.697Z,8.40
2023-03-06T16:22:50.592Z,8.80
2023-03-06T16:29:33.804Z,7.60
2023-03-06T16:32:04.730Z,10.20
2023-03-06T16:34:35.320Z,9.30
2023-03-06T16:37:07.296Z,10.20
2023-03-06T16:39:37.712Z,8.40
2023-03-06T16:42:08.758Z,9.70
2023-03-06T16:44:39.512Z,9.30
2023-03-06T16:47:12.843Z,9.30
2023-03-06T16:49:43.424Z,10.30
2023-03-06T16:56:34.536Z,8.40
2023-03-06T16:59:05.337Z,9.70
2023-03-06T17:01:36.010Z,11.10
2023-03-06T17:04:06.930Z,11.20
2023-03-06T17:06:38.082Z,10.90
2023-03-06T17:13:22.462Z,10.60
2023-03-06T17:15:59.589Z,11.10
2023-03-06T17:22:42.672Z,8.50
2023-03-06T17:25:13.937Z,8.30
2023-03-06T17:27:44.476Z,8.00
2023-03-06T17:30:16.486Z,8.80
2023-03-06T17:32:46.951Z,8.30
2023-03-06T17:35:17.508Z,7.70
2023-03-06T17:37:47.975Z,7.50
2023-03-06T17:40:19.481Z,7.90
2023-03-06T17:42:50.713Z,8.70
2023-03-06T17:45:21.363Z,8.70
2023-03-06T17:47:55.491Z,9.40
2023-03-06T17:50:25.937Z,10.40
2023-03-06T17:52:56.750Z,10.10
2023-03-06T17:55:28.991Z,11.20
2023-03-06T17:57:59.533Z,11.30
2023-03-06T18:00:30.049Z,11.90
2023-03-06T18:03:54.024Z,10.80
2023-03-06T18:06:27.657Z,11.80
2023-03-06T18:08:59.031Z,11.70
2023-03-06T18:11:30.519Z,12.00
2023-03-06T18:14:01.083Z,12.10
2023-03-06T18:20:34.060Z,9.90
2023-03-06T18:23:04.501Z,11.30
2023-03-06T18:25:34.986Z,11.20
2023-03-06T18:28:42.587Z,11.50
2023-03-06T18:31:19.902Z,11.30
2023-03-06T18:33:52.012Z,10.80
2023-03-06T18:36:24.420Z,11.70
2023-03-06T18:38:55.710Z,11.30
2023-03-06T18:41:26.211Z,11.60
2023-03-06T18:43:57.928Z,12.20
2023-03-06T18:46:30.598Z,12.50
2023-03-06T18:49:01.726Z,10.70
2023-03-06T18:51:32.772Z,11.20
2023-03-06T18:54:04.931Z,12.30
2023-03-06T18:56:35.671Z,10.90
2023-03-06T18:59:08.009Z,13.90
2023-03-06T19:04:08.229Z,10.20
2023-03-06T19:06:39.940Z,12.20
2023-03-06T19:09:11.375Z,11.90
2023-03-06T19:11:42.761Z,11.70
2023-03-06T19:14:13.497Z,11.80
2023-03-06T19:16:44.465Z,11.30
2023-03-06T19:19:14.967Z,11.80
2023-03-06T19:21:45.375Z,12.70
2023-03-06T19:24:15.822Z,10.00
2023-03-06T19:26:46.218Z,10.80
2023-03-06T19:29:16.982Z,10.30
2023-03-06T19:36:08.835Z,10.70
2023-03-06T19:41:11.955Z,12.60
2023-03-06T19:43:43.410Z,11.50
2023-03-06T19:46:15.229Z,11.30
2023-03-06T19:48:46.401Z,13.00
2023-03-06T19:55:36.206Z,12.60
2023-03-06T19:58:07.266Z,13.30
2023-03-06T20:00:38.258Z,14.50
2023-03-06T20:03:09.044Z,14.00
2023-03-06T20:05:46.125Z,14.00
2023-03-06T20:08:16.580Z,13.10
2023-03-06T20:15:10.327Z,11.00
2023-03-06T20:17:41.112Z,11.10
2023-03-06T20:20:14.359Z,12.80
2023-03-06T20:22:44.772Z,11.60
2023-03-06T20:25:15.327Z,12.20
2023-03-06T20:27:45.736Z,12.60
2023-03-06T20:30:17.164Z,12.90
2023-03-06T20:32:47.641Z,12.00
2023-03-06T20:35:44.856Z,12.60
2023-03-06T20:42:29.085Z,18.30
2023-03-06T20:44:59.628Z,15.70
2023-03-06T20:47:30.309Z,12.70
2023-03-06T20:50:00.686Z,12.30
2023-03-06T20:52:31.157Z,13.20
2023-03-06T20:55:01.923Z,12.60
2023-03-06T21:06:25.851Z,11.80
2023-03-06T21:08:56.639Z,12.50
2023-03-06T21:11:28.286Z,14.10
2023-03-06T21:13:59.180Z,12.00
2023-03-06T21:20:56.344Z,10.80
2023-03-06T21:23:26.804Z,12.00
2023-03-06T21:25:57.421Z,12.80
2023-03-06T21:28:28.175Z,13.00
2023-03-06T21:31:00.604Z,14.10
2023-03-06T21:33:31.690Z,13.30
2023-03-06T21:36:02.503Z,12.30
2023-03-06T21:47:06.292Z,11.00
2023-03-06T21:49:36.872Z,11.00
2023-03-06T21:52:07.842Z,11.10
2023-03-06T21:54:38.421Z,29.00
2023-03-06T21:57:10.379Z,17.60
2023-03-06T21:59:41.289Z,12.20
2023-03-06T22:02:12.638Z,12.10
2023-03-06T22:04:44.301Z,11.70
2023-03-06T22:07:14.741Z,12.80
2023-03-06T22:09:45.278Z,11.70
2023-03-06T22:12:15.673Z,11.60
2023-03-06T22:14:47.034Z,11.00
2023-03-06T22:17:17.495Z,11.20
2023-03-06T22:19:49.121Z,11.90
2023-03-06T22:22:19.566Z,10.60
2023-03-06T22:24:50.990Z,10.50
2023-03-06T22:27:21.829Z,33.50
2023-03-06T22:29:52.874Z,21.60
2023-03-06T22:32:23.512Z,13.80
2023-03-06T22:34:54.033Z,11.30
2023-03-06T22:37:24.545Z,12.30
2023-03-06T22:39:55.003Z,11.70
2023-03-06T22:42:25.470Z,11.20
2023-03-06T22:44:55.967Z,12.00
2023-03-06T22:47:26.404Z,11.40
2023-03-06T22:49:57.004Z,11.40
2023-03-06T22:52:27.393Z,11.60
2023-03-06T22:54:58.166Z,13.40
2023-03-06T22:57:30.015Z,12.80
2023-03-06T23:00:00.479Z,11.50
2023-03-06T23:02:36.172Z,11.60
2023-03-06T23:05:07.409Z,11.10
2023-03-06T23:07:37.914Z,10.90
2023-03-06T23:10:10.538Z,11.70
2023-03-06T23:12:59.825Z,11.30
2023-03-06T23:15:49.036Z,10.20
2023-03-06T23:18:39.257Z,11.60
2023-03-06T23:21:28.211Z,11.10
2023-03-06T23:24:17.519Z,12.20
2023-03-06T23:26:48.003Z,11.50
2023-03-06T23:29:18.595Z,11.80
2023-03-06T23:31:49.116Z,12.60
2023-03-06T23:34:19.546Z,13.30
2023-03-06T23:36:49.996Z,13.70
2023-03-06T23:39:20.938Z,13.60
2023-03-06T23:41:51.433Z,14.20
2023-03-06T23:44:21.851Z,13.40
2023-03-06T23:46:52.269Z,13.60
2023-03-06T23:49:22.725Z,13.70
2023-03-06T23:51:53.262Z,13.90
2023-03-06T23:54:23.989Z,13.00
2023-03-06T23:56:54.608Z,12.40
2023-03-06T23:59:25.068Z,11.90
